Kezdőlap
METAR-TAF:

METAR-TAF

Repülőterek :

Trabzon, Törökország

földrajzi szélesség: 41-00N, földrajzi hosszúság: 039-43E, magasság: 35 m

Jelenlegi meteorológiai megfigyelések

A jelentés 46 perccel ezelõtt készült, 01:50 UTC
Különbözõ irányokból fújó szél 1 kt
Hőmérséklet 8°C
Páratartalom 81%
Légköri nyomás 1028 hPa
Látótávolság 10 km, vagy több
felhőtlen 1500 m magasságban, és nincs gomolyfelhõ

METAR: LTCG 250150Z VRB01KT CAVOK 08/05 Q1028 NOSIG RMK RWY29 00000KT

Idő: 05:36 (02:36 UTC)

Előrejelzés

A jelentés 3 órával és 56 perccel ezelõtt készült, 22:40 UTC
Az előrejelzés 25-én 00 óra UTC és 25-én 24 óra UTC között érvényes
Különbözõ irányokból fújó szél 2 kt
Látótávolság 10 km, vagy több
felhőtlen 1500 m magasságban, és nincs gomolyfelhõ
25-én 08 óra UTC és 25-én 11 óra UTC között fokozatosan kialakuló
Keleti szél 12 kt

TAF: LTCG 242240Z 2500/2524 VRB02KT CAVOK BECMG 2508/2511 09012KT

Meteorológiai megfigyelések és előrejelzések több, mint 4000 repülőtéren (METAR és TAF jelentéseket).

A térképen piros és sárga pontok jelzik az elérhető meteorológiai állomásokat.

Mozgassa az egeret a pont fölött, hogy megjelenjen az állomás neve.

Azután kattintson az időjárási megfigyelések és előrejelzések megtekintéséhez.

A térkép megváltoztatása: kattintson a fekete keresztel jelölt zöld gombra ráközelítéshez, a vonallal jelölt zöld gombra távolításhoz, vagy a zöld nyilakra a szomszédos térképek eléréséhez.


METAR-TAF: